Time;durP1;ratioP1;P1;durP2;ratioP2;P2;SDS_P1;SDS_P2;PMS_P1;PMS_P2;Temp;Humidity;BMP_temperature;BMP_pressure;BME280_temperature;BME280_humidity;BME280_pressure;Samples;Min_cycle;Max_cycle;Signal;HPM_P1;HPM_P2
2022/07/20 00:00:32;;;;;;;5.80;4.10;;;;;;;25.86;33.91;101091.59;5100060;28;20542;-72
2022/07/20 00:03:13;;;;;;;6.75;4.68;;;;;;;25.76;34.93;101091.47;5113510;28;20023;-72
2022/07/20 00:05:40;;;;;;;5.45;4.43;;;;;;;25.78;36.24;101099.38;5103661;28;20035;-71
2022/07/20 00:08:07;;;;;;;7.38;4.75;;;;;;;25.60;35.11;101096.41;5113833;28;20030;-71
2022/07/20 00:13:17;;;;;;;6.63;4.90;;;;;;;25.47;35.72;101088.56;5113914;28;20047;-71
2022/07/20 00:15:43;;;;;;;6.55;5.03;;;;;;;25.39;35.99;101093.69;5113523;28;20107;-72
2022/07/20 00:18:08;;;;;;;6.95;4.40;;;;;;;25.32;35.30;101090.69;5113005;28;20368;-72
2022/07/20 00:20:35;;;;;;;5.85;4.20;;;;;;;25.21;36.49;101094.22;5098360;28;20035;-72
2022/07/20 00:23:01;;;;;;;7.32;4.82;;;;;;;25.14;34.95;101094.84;5112467;28;20489;-71
2022/07/20 00:25:26;;;;;;;11.77;4.70;;;;;;;25.15;36.88;101092.06;5103400;28;20055;-72
2022/07/20 00:27:52;;;;;;;6.68;4.90;;;;;;;25.07;36.40;101093.59;5107292;28;20546;-71
2022/07/20 00:30:17;;;;;;;7.25;4.32;;;;;;;25.03;37.28;101086.84;5098865;28;20031;-71
2022/07/20 00:32:42;;;;;;;8.38;4.85;;;;;;;24.93;37.78;101090.22;5110123;28;20062;-71
2022/07/20 00:35:12;;;;;;;7.63;4.70;;;;;;;24.76;36.67;101098.72;5111139;28;20031;-71
2022/07/20 00:37:37;;;;;;;9.13;4.88;;;;;;;24.76;36.58;101149.38;5107887;28;20459;-71
2022/07/20 00:40:04;;;;;;;11.82;4.97;;;;;;;24.63;40.64;101138.00;5113506;28;20084;-71
2022/07/20 00:42:29;;;;;;;8.55;4.72;;;;;;;24.73;37.57;101101.63;5113284;28;20028;-72
2022/07/20 00:44:55;;;;;;;11.90;5.50;;;;;;;24.70;37.70;101102.72;5110357;28;20151;-71
2022/07/20 00:47:20;;;;;;;9.27;4.97;;;;;;;24.70;37.88;101109.88;5104914;28;20093;-71
2022/07/20 00:49:45;;;;;;;8.10;5.07;;;;;;;24.67;37.37;101121.63;5113125;28;20035;-71
2022/07/20 00:52:12;;;;;;;10.48;4.95;;;;;;;24.67;37.26;101158.09;5112405;28;20423;-71
2022/07/20 00:54:38;;;;;;;9.05;4.97;;;;;;;24.61;39.22;101134.59;5112742;28;20486;-71
2022/07/20 00:57:04;;;;;;;12.93;5.20;;;;;;;24.55;38.74;101129.72;5113067;28;20031;-71
2022/07/20 00:59:29;;;;;;;6.80;5.13;;;;;;;24.47;38.99;101139.16;5102147;28;20065;-72
2022/07/20 01:01:55;;;;;;;11.18;5.25;;;;;;;24.46;38.72;101158.81;5107689;28;20069;-71
2022/07/20 01:04:21;;;;;;;9.50;4.75;;;;;;;24.40;38.77;101127.25;5113067;28;20047;-72
2022/07/20 01:06:48;;;;;;;8.40;5.13;;;;;;;24.39;39.12;101122.88;5112130;28;20054;-71
2022/07/20 01:09:13;;;;;;;10.25;5.28;;;;;;;24.30;39.27;101107.63;5112669;28;20026;-71
2022/07/20 01:11:38;;;;;;;12.52;5.30;;;;;;;24.33;38.96;101118.06;5102656;28;20028;-71
2022/07/20 01:14:06;;;;;;;10.40;5.47;;;;;;;24.23;37.80;101125.03;5109524;28;20382;-71
2022/07/20 01:16:33;;;;;;;9.52;4.75;;;;;;;24.22;40.79;101110.84;5112766;27;20027;-71
2022/07/20 01:18:59;;;;;;;16.40;5.30;;;;;;;24.10;38.87;101130.47;5106954;28;20026;-71
2022/07/20 01:21:24;;;;;;;9.50;5.43;;;;;;;24.05;39.42;101122.81;5111926;27;20106;-72
2022/07/20 01:23:50;;;;;;;11.95;5.43;;;;;;;23.97;38.94;101125.22;5112143;28;20024;-72
2022/07/20 01:26:17;;;;;;;10.38;5.10;;;;;;;23.91;40.54;101120.34;5111767;28;20030;-71
2022/07/20 01:28:42;;;;;;;10.90;4.93;;;;;;;23.88;39.91;101117.91;5112214;28;20045;-72
2022/07/20 01:31:07;;;;;;;12.50;5.35;;;;;;;23.87;40.70;101118.00;5098547;28;20058;-71
2022/07/20 01:33:33;;;;;;;10.10;5.60;;;;;;;23.81;40.77;101109.53;5110967;28;20024;-71
2022/07/20 01:35:58;;;;;;;9.20;5.60;;;;;;;23.75;40.97;101114.47;5099352;28;20382;-72
2022/07/20 01:38:23;;;;;;;11.90;6.13;;;;;;;23.67;40.11;101116.81;5112361;28;20016;-71
2022/07/20 01:40:48;;;;;;;7.78;5.10;;;;;;;23.61;41.05;101112.81;5111203;28;20378;-72
2022/07/20 01:43:14;;;;;;;9.57;5.30;;;;;;;23.62;41.90;101114.50;5089725;28;20382;-72
2022/07/20 01:45:39;;;;;;;8.25;5.50;;;;;;;23.52;41.54;101114.31;5103392;28;20038;-72
2022/07/20 01:48:05;;;;;;;9.40;5.10;;;;;;;23.47;41.53;101108.47;5111436;28;20035;-72
2022/07/20 01:50:31;;;;;;;8.13;5.78;;;;;;;23.47;41.33;101108.47;5112405;28;20043;-72
2022/07/20 01:52:56;;;;;;;11.05;5.63;;;;;;;23.39;40.49;101116.19;5111762;28;20031;-72
2022/07/20 01:55:22;;;;;;;6.78;5.15;;;;;;;23.34;42.05;101119.16;5111036;28;20042;-72
2022/07/20 01:57:47;;;;;;;7.88;5.70;;;;;;;23.27;41.68;101127.72;5111727;28;20039;-72
2022/07/20 02:00:13;;;;;;;13.07;6.03;;;;;;;23.19;42.37;101132.75;5096430;28;20478;-72
2022/07/20 02:02:40;;;;;;;7.43;5.95;;;;;;;23.13;43.99;101155.31;5111187;28;20471;-72
2022/07/20 02:05:06;;;;;;;8.63;5.32;;;;;;;23.04;44.42;101151.47;5111673;28;20035;-72
2022/07/20 02:07:31;;;;;;;9.88;5.68;;;;;;;23.06;45.15;101162.88;5104968;28;20020;-72
2022/07/20 02:09:56;;;;;;;9.43;5.70;;;;;;;22.95;45.52;101173.41;5101786;28;20031;-72
2022/07/20 02:12:21;;;;;;;10.35;6.05;;;;;;;22.91;44.32;101183.38;5111559;28;20540;-72
2022/07/20 02:14:47;;;;;;;13.57;5.50;;;;;;;23.03;42.63;101176.38;5111803;28;20379;-72
2022/07/20 02:17:12;;;;;;;13.15;5.68;;;;;;;23.07;42.21;101182.34;5106927;28;20046;-72
2022/07/20 02:19:38;;;;;;;11.45;5.63;;;;;;;23.04;42.77;101167.44;5111843;28;20020;-72
2022/07/20 02:22:03;;;;;;;10.35;6.05;;;;;;;23.05;42.36;101174.47;5111872;28;20474;-72
2022/07/20 02:24:28;;;;;;;8.15;6.18;;;;;;;23.05;42.33;101163.84;5110828;28;20027;-72
2022/07/20 02:26:54;;;;;;;11.52;6.15;;;;;;;22.99;43.34;101180.22;5111401;28;20526;-72
2022/07/20 02:29:19;;;;;;;12.40;8.20;;;;;;;23.00;44.69;101170.44;5111626;28;20046;-72
2022/07/20 02:31:44;;;;;;;11.35;8.07;;;;;;;23.03;44.69;101172.88;5092806;28;20072;-72
2022/07/20 02:34:10;;;;;;;13.73;9.77;;;;;;;22.95;46.05;101181.38;5106477;28;20028;-72
2022/07/20 02:36:35;;;;;;;13.95;10.00;;;;;;;22.94;45.56;101158.41;5097949;28;20172;-72
2022/07/20 02:39:00;;;;;;;13.63;10.40;;;;;;;22.95;47.00;101176.06;5111635;28;20076;-72
2022/07/20 02:41:26;;;;;;;14.82;10.52;;;;;;;22.88;46.86;101175.59;5111228;28;20031;-72
2022/07/20 02:43:51;;;;;;;17.02;12.05;;;;;;;22.85;47.98;101188.25;5110737;28;20016;-72
2022/07/20 02:46:16;;;;;;;14.82;12.02;;;;;;;22.78;48.23;101181.69;5114703;28;20082;-72
2022/07/20 02:48:41;;;;;;;18.35;12.13;;;;;;;22.82;48.67;101193.78;5115578;28;20024;-72
2022/07/20 02:51:07;;;;;;;20.52;13.13;;;;;;;22.76;49.16;101183.56;5103239;28;20032;-72
2022/07/20 02:53:32;;;;;;;22.48;13.38;;;;;;;22.71;49.70;101181.25;5095158;28;20016;-72
2022/07/20 02:55:58;;;;;;;17.45;14.27;;;;;;;22.66;51.13;101178.94;5094843;28;20044;-72
2022/07/20 02:58:23;;;;;;;21.40;15.00;;;;;;;22.56;51.38;101172.53;5093757;28;20039;-72
2022/07/20 03:00:48;;;;;;;25.27;15.30;;;;;;;22.54;52.41;101181.56;5093176;28;20039;-72
2022/07/20 03:03:14;;;;;;;24.40;15.93;;;;;;;22.50;52.24;101186.25;5098521;28;20500;-72
2022/07/20 03:05:39;;;;;;;24.30;16.40;;;;;;;22.46;53.47;101203.31;5102266;28;20028;-72
2022/07/20 03:08:06;;;;;;;26.65;17.35;;;;;;;22.41;53.90;101200.16;5108090;28;20078;-72
2022/07/20 03:10:32;;;;;;;26.98;18.35;;;;;;;22.43;54.76;101187.59;5108241;28;20069;-72
2022/07/20 03:12:57;;;;;;;28.67;18.67;;;;;;;22.44;55.79;101190.16;5114479;28;20027;-72
2022/07/20 03:15:22;;;;;;;30.20;19.73;;;;;;;22.40;56.21;101183.34;5110779;28;20056;-72
2022/07/20 03:17:50;;;;;;;23.52;19.08;;;;;;;22.33;56.36;101181.19;5097090;28;20108;-72
2022/07/20 03:20:21;;;;;;;26.98;20.75;;;;;;;22.33;56.96;101187.34;5114119;28;20473;-72
2022/07/20 03:22:46;;;;;;;28.63;23.15;;;;;;;22.35;57.72;101197.91;5114575;28;20072;-72
2022/07/20 03:25:12;;;;;;;31.27;22.25;;;;;;;22.26;58.46;101206.47;5111364;28;20024;-72
2022/07/20 03:27:38;;;;;;;26.58;22.52;;;;;;;22.25;58.82;101215.41;5114266;28;20023;-72
2022/07/20 03:30:05;;;;;;;32.75;22.77;;;;;;;22.19;59.09;101208.69;5114858;27;20020;-72
2022/07/20 03:32:30;;;;;;;32.92;23.65;;;;;;;22.14;60.18;101224.91;5107800;28;20066;-72
2022/07/20 03:34:56;;;;;;;35.13;25.05;;;;;;;22.14;60.10;101222.25;5099188;28;20055;-72
2022/07/20 03:37:21;;;;;;;33.33;24.23;;;;;;;22.09;60.64;101234.97;5114585;28;20023;-72
2022/07/20 03:39:46;;;;;;;38.50;25.77;;;;;;;22.00;61.50;101235.56;5113480;28;20428;-72
2022/07/20 03:42:12;;;;;;;31.70;25.17;;;;;;;22.03;61.19;101237.16;5100092;28;20024;-72
2022/07/20 03:44:37;;;;;;;34.67;25.47;;;;;;;22.01;61.70;101242.59;5107360;28;20035;-72
2022/07/20 03:47:02;;;;;;;36.30;26.00;;;;;;;21.97;61.97;101251.69;5113584;28;20266;-72
2022/07/20 03:49:27;;;;;;;38.33;26.52;;;;;;;22.03;61.78;101251.28;5114518;28;20467;-71
2022/07/20 03:51:53;;;;;;;36.42;25.85;;;;;;;22.05;62.36;101253.88;5113845;28;20019;-72
2022/07/20 03:54:18;;;;;;;36.65;27.38;;;;;;;22.01;62.69;101266.47;5113293;28;20046;-72
2022/07/20 03:56:43;;;;;;;38.67;27.27;;;;;;;21.97;63.15;101272.91;5108878;27;20028;-72
2022/07/20 03:59:11;;;;;;;38.25;27.05;;;;;;;21.99;63.08;101276.34;5113970;28;20043;-71
2022/07/20 04:01:37;;;;;;;39.28;27.95;;;;;;;21.98;63.07;101287.91;5100427;28;20030;-72
2022/07/20 04:04:04;;;;;;;37.78;26.85;;;;;;;21.95;63.34;101277.50;5093742;28;20028;-72
2022/07/20 04:06:29;;;;;;;38.65;27.38;;;;;;;22.05;63.07;101289.22;5093527;28;20020;-72
2022/07/20 04:08:55;;;;;;;36.38;26.85;;;;;;;22.05;62.67;101293.69;5094302;28;20088;-72
2022/07/20 04:11:20;;;;;;;35.40;26.77;;;;;;;22.03;63.01;101287.59;5109301;28;20103;-72
2022/07/20 04:13:45;;;;;;;39.55;26.92;;;;;;;22.15;62.88;101289.47;5099158;28;20036;-72
2022/07/20 04:16:11;;;;;;;35.28;25.80;;;;;;;22.17;62.45;101293.78;5112689;28;20027;-72
2022/07/20 04:18:36;;;;;;;36.50;25.17;;;;;;;22.23;62.24;101297.81;5113739;28;20019;-72
2022/07/20 04:21:02;;;;;;;35.78;25.90;;;;;;;22.24;61.91;101302.19;5113563;28;20024;-72
2022/07/20 04:23:28;;;;;;;39.92;26.00;;;;;;;22.27;61.85;101296.69;5112853;28;20034;-72
2022/07/20 04:25:53;;;;;;;31.02;24.95;;;;;;;22.32;61.85;101299.03;5113205;28;20028;-71
2022/07/20 04:28:18;;;;;;;33.08;24.95;;;;;;;22.38;61.34;101304.78;5106581;28;20047;-71
2022/07/20 04:30:44;;;;;;;34.08;25.00;;;;;;;22.48;60.12;101310.34;5102958;28;20110;-72
2022/07/20 04:33:09;;;;;;;30.15;24.17;;;;;;;22.57;61.03;101314.22;5112900;28;20023;-72
2022/07/20 04:35:34;;;;;;;32.13;23.67;;;;;;;22.64;60.60;101323.47;5113421;28;20027;-72
2022/07/20 04:38:00;;;;;;;33.33;23.17;;;;;;;22.71;60.09;101313.28;5109793;28;20107;-72
2022/07/20 04:40:26;;;;;;;34.17;23.95;;;;;;;22.76;59.55;101317.34;5113212;28;20020;-72
2022/07/20 04:42:51;;;;;;;32.45;23.23;;;;;;;22.83;60.11;101323.94;5103672;28;20032;-72
2022/07/20 04:45:16;;;;;;;28.20;23.63;;;;;;;22.84;59.66;101320.31;5112431;28;20052;-72
2022/07/20 04:47:42;;;;;;;29.77;23.15;;;;;;;22.87;58.40;101329.91;5113067;28;20034;-72
2022/07/20 04:50:08;;;;;;;31.27;23.30;;;;;;;22.87;59.02;101336.06;5112129;28;20024;-72
2022/07/20 04:52:33;;;;;;;30.20;22.77;;;;;;;22.83;59.47;101337.25;5113069;28;20194;-72
2022/07/20 04:54:58;;;;;;;33.20;23.20;;;;;;;22.77;59.38;101344.78;5112591;28;20486;-72
2022/07/20 04:57:24;;;;;;;30.65;22.48;;;;;;;22.75;59.65;101336.88;5105599;28;20859;-72
2022/07/20 04:59:49;;;;;;;31.80;22.50;;;;;;;22.72;60.68;101341.56;5107528;28;20059;-71
2022/07/20 05:02:14;;;;;;;28.10;21.70;;;;;;;22.76;60.68;101330.63;5112975;28;20024;-72
2022/07/20 05:04:40;;;;;;;30.10;21.77;;;;;;;22.66;60.23;101332.19;5112103;28;20043;-72
2022/07/20 05:07:05;;;;;;;30.98;23.05;;;;;;;22.64;60.55;101331.44;5111775;28;20068;-72
2022/07/20 05:09:30;;;;;;;30.80;22.30;;;;;;;22.56;60.20;101337.28;5099337;28;20120;-72
2022/07/20 05:11:55;;;;;;;30.30;22.48;;;;;;;22.54;60.75;101333.84;5098972;28;20028;-72
2022/07/20 05:14:21;;;;;;;27.95;21.67;;;;;;;22.56;60.58;101333.75;5100538;28;20020;-72
2022/07/20 05:16:46;;;;;;;29.08;23.15;;;;;;;22.57;61.30;101330.16;5112462;28;20397;-72
2022/07/20 05:19:12;;;;;;;28.77;22.05;;;;;;;22.61;61.28;101339.63;5111576;28;20015;-72
2022/07/20 05:21:37;;;;;;;30.48;22.00;;;;;;;22.68;60.86;101347.06;5112565;28;20020;-72
2022/07/20 05:24:03;;;;;;;30.05;22.42;;;;;;;22.68;60.42;101347.06;5112397;28;20072;-71
2022/07/20 05:26:28;;;;;;;28.80;22.23;;;;;;;22.79;60.85;101365.00;5111817;28;20079;-72
2022/07/20 05:28:53;;;;;;;30.00;22.23;;;;;;;22.77;60.70;101366.03;5098587;28;20160;-72
2022/07/20 05:31:18;;;;;;;28.50;22.55;;;;;;;22.76;60.50;101374.94;5106566;28;20030;-72
2022/07/20 05:33:44;;;;;;;28.88;22.80;;;;;;;22.80;59.27;101379.13;5111553;27;20023;-72
2022/07/20 05:36:10;;;;;;;42.30;23.38;;;;;;;22.89;60.20;101384.69;5112001;28;20154;-72
2022/07/20 05:38:36;;;;;;;33.97;22.15;;;;;;;22.95;59.46;101374.59;5112042;28;20035;-72
2022/07/20 05:41:01;;;;;;;29.58;21.95;;;;;;;23.06;59.44;101388.06;5110021;28;20027;-72
2022/07/20 05:43:26;;;;;;;28.83;21.40;;;;;;;23.12;59.01;101398.28;5098233;28;20020;-72
2022/07/20 05:45:52;;;;;;;30.30;20.92;;;;;;;23.25;59.60;101415.09;5111965;28;20031;-72
2022/07/20 05:48:17;;;;;;;26.73;21.38;;;;;;;23.37;59.38;101405.41;5111213;28;20462;-72
2022/07/20 05:50:43;;;;;;;24.48;19.73;;;;;;;23.47;57.17;101405.66;5111909;28;20028;-72
2022/07/20 05:53:10;;;;;;;24.90;19.48;;;;;;;23.57;57.57;101417.34;5111611;28;20034;-71
2022/07/20 05:55:35;;;;;;;27.77;19.25;;;;;;;23.65;56.59;101425.69;5111131;28;20214;-72
2022/07/20 05:58:02;;;;;;;24.83;18.77;;;;;;;23.79;57.34;101409.63;5105896;28;20509;-72
2022/07/20 06:00:28;;;;;;;25.38;18.20;;;;;;;23.96;55.50;101439.53;5111124;28;20015;-72
2022/07/20 06:02:53;;;;;;;25.08;17.75;;;;;;;24.08;55.76;101430.69;5111744;28;20019;-72
2022/07/20 06:05:18;;;;;;;23.60;16.83;;;;;;;24.14;54.40;101435.56;5106373;28;20367;-72
2022/07/20 06:07:44;;;;;;;26.58;16.58;;;;;;;24.12;53.21;101453.47;5094364;28;20262;-72
2022/07/20 06:10:10;;;;;;;23.13;16.42;;;;;;;24.13;53.52;101451.66;5103653;28;20096;-71
2022/07/20 06:12:35;;;;;;;24.08;16.33;;;;;;;24.16;54.66;101449.63;5103808;28;20110;-72
2022/07/20 06:15:01;;;;;;;22.77;15.02;;;;;;;24.23;54.72;101458.03;5111223;28;20060;-72
2022/07/20 06:17:34;;;;;;;24.77;14.82;;;;;;;24.24;54.12;101473.06;5109171;28;20111;-72
2022/07/20 06:20:08;;;;;;;24.90;15.80;;;;;;;24.19;54.72;101470.72;5089915;28;20123;-72
2022/07/20 06:22:38;;;;;;;23.58;15.15;;;;;;;24.18;54.98;101473.50;5092792;28;20059;-72
2022/07/20 06:25:06;;;;;;;24.55;16.05;;;;;;;24.16;54.17;101489.56;5111856;28;20028;-72
2022/07/20 06:27:31;;;;;;;20.67;14.20;;;;;;;24.22;53.34;101488.28;5111619;28;20467;-72
2022/07/20 06:29:57;;;;;;;23.00;15.65;;;;;;;24.26;54.31;101495.09;5111023;28;20039;-72
2022/07/20 06:32:23;;;;;;;18.38;15.00;;;;;;;24.25;52.79;101502.25;5092419;28;20051;-72
2022/07/20 06:34:48;;;;;;;20.50;15.27;;;;;;;24.27;53.24;101515.47;5091316;28;20110;-72
2022/07/20 06:37:13;;;;;;;32.85;15.55;;;;;;;24.25;52.27;101528.03;5088655;28;20346;-72
2022/07/20 06:39:39;;;;;;;25.17;14.63;;;;;;;24.25;53.71;101525.38;5108156;28;20466;-71
2022/07/20 06:42:04;;;;;;;26.95;14.88;;;;;;;24.26;54.24;101527.06;5108747;28;20019;-71
2022/07/20 06:44:30;;;;;;;27.95;16.08;;;;;;;24.20;53.28;101532.84;5098649;28;20058;-73
2022/07/20 06:46:56;;;;;;;26.77;15.30;;;;;;;24.17;53.84;101541.91;5111257;28;20477;-73
2022/07/20 06:49:21;;;;;;;26.15;15.10;;;;;;;24.06;54.31;101539.13;5103404;28;20024;-73
2022/07/20 06:51:46;;;;;;;22.63;14.55;;;;;;;24.09;54.53;101548.72;5104188;28;20027;-73
2022/07/20 06:54:11;;;;;;;24.23;14.63;;;;;;;23.97;54.44;101555.72;5111210;28;20026;-74
2022/07/20 06:56:37;;;;;;;25.30;14.52;;;;;;;24.00;54.37;101569.72;5110982;28;20293;-73
2022/07/20 06:59:02;;;;;;;22.20;14.55;;;;;;;24.08;53.96;101568.34;5110822;28;20028;-73
2022/07/20 07:01:27;;;;;;;24.80;15.10;;;;;;;24.18;54.12;101564.06;5102752;28;20091;-73
2022/07/20 07:03:52;;;;;;;19.75;14.52;;;;;;;24.18;54.23;101558.75;5093904;28;20021;-73
2022/07/20 07:06:18;;;;;;;23.70;15.45;;;;;;;24.20;53.07;101562.16;5091684;28;20429;-73
2022/07/20 07:08:43;;;;;;;28.35;16.35;;;;;;;24.28;52.87;101562.47;5091933;28;20031;-73
2022/07/20 07:11:08;;;;;;;27.38;16.65;;;;;;;24.30;52.58;101552.56;5095956;28;20027;-73
2022/07/20 07:13:34;;;;;;;24.02;15.57;;;;;;;24.42;52.77;101549.03;5111219;28;20024;-73
2022/07/20 07:15:59;;;;;;;32.85;16.05;;;;;;;24.52;54.11;101535.91;5111109;28;20551;-73
2022/07/20 07:18:24;;;;;;;24.00;16.27;;;;;;;24.66;54.03;101548.28;5102444;28;20039;-72
2022/07/20 07:20:50;;;;;;;24.73;15.40;;;;;;;24.69;54.27;101542.75;5088131;28;20118;-72
2022/07/20 07:23:15;;;;;;;20.42;14.85;;;;;;;24.78;52.94;101547.38;5083621;28;20019;-72
2022/07/20 07:25:40;;;;;;;22.05;15.07;;;;;;;24.92;52.97;101555.25;5088641;28;20101;-72
2022/07/20 07:28:05;;;;;;;21.50;14.88;;;;;;;24.96;54.05;101570.06;5095743;28;20102;-72
2022/07/20 07:30:31;;;;;;;27.95;14.80;;;;;;;24.98;52.92;101570.81;5088480;28;20056;-72
2022/07/20 07:32:56;;;;;;;22.58;14.07;;;;;;;25.19;52.44;101584.41;5094265;28;20076;-73
2022/07/20 07:35:21;;;;;;;25.70;13.93;;;;;;;25.38;51.15;101588.41;5089519;28;20043;-71
2022/07/20 07:37:46;;;;;;;22.35;13.43;;;;;;;25.48;50.82;101593.91;5105494;28;20064;-71
2022/07/20 07:40:12;;;;;;;20.60;14.32;;;;;;;25.49;50.50;101598.28;5113895;28;20076;-71
2022/07/20 07:42:37;;;;;;;18.95;13.27;;;;;;;25.52;51.65;101601.56;5114688;28;20036;-71
2022/07/20 07:45:06;;;;;;;19.20;13.07;;;;;;;25.61;49.77;101594.69;5114551;28;20035;-71
2022/07/20 07:47:32;;;;;;;19.40;13.15;;;;;;;25.65;50.40;101602.34;5114062;28;20055;-71
2022/07/20 07:49:57;;;;;;;19.33;11.93;;;;;;;25.62;51.20;101612.41;5114308;27;20020;-71
2022/07/20 07:52:23;;;;;;;19.05;13.00;;;;;;;25.64;50.59;101613.16;5114674;27;20034;-71
2022/07/20 07:54:48;;;;;;;24.02;12.55;;;;;;;25.75;50.07;101610.53;5113087;28;20097;-72
2022/07/20 07:57:13;;;;;;;19.10;13.50;;;;;;;25.79;49.50;101619.16;5114428;28;20106;-71
2022/07/20 07:59:38;;;;;;;20.85;12.77;;;;;;;25.87;49.04;101614.97;5114186;28;20034;-71
2022/07/20 08:02:04;;;;;;;22.15;13.00;;;;;;;25.97;48.85;101603.59;5113499;28;20094;-71
2022/07/20 08:04:29;;;;;;;17.25;12.10;;;;;;;26.06;48.79;101595.72;5114017;28;20031;-72
2022/07/20 08:06:54;;;;;;;17.02;12.25;;;;;;;26.11;50.25;101588.19;5113862;28;20015;-71
2022/07/20 08:09:20;;;;;;;20.08;12.40;;;;;;;26.20;49.04;101580.44;5099002;28;20026;-71
2022/07/20 08:11:46;;;;;;;18.08;11.93;;;;;;;26.45;49.08;101577.53;5113950;28;20388;-71
2022/07/20 08:14:11;;;;;;;19.10;12.10;;;;;;;26.75;47.45;101560.91;5113060;28;20104;-71
2022/07/20 08:16:36;;;;;;;15.95;12.27;;;;;;;27.02;47.34;101565.84;5113830;28;20106;-72
2022/07/20 08:19:02;;;;;;;18.08;11.63;;;;;;;27.34;47.25;101565.06;5113603;28;20070;-72
2022/07/20 08:21:27;;;;;;;18.15;11.18;;;;;;;27.30;45.30;101567.13;5105443;28;20028;-71
2022/07/20 08:23:53;;;;;;;14.88;11.07;;;;;;;27.11;45.95;101572.28;5103446;28;20039;-70
2022/07/20 08:26:18;;;;;;;14.98;11.43;;;;;;;27.00;46.09;101569.59;5090760;28;20152;-71
2022/07/20 08:28:43;;;;;;;19.23;11.65;;;;;;;26.90;45.93;101574.00;5086132;28;20032;-71
2022/07/20 08:31:09;;;;;;;16.80;11.20;;;;;;;26.88;47.01;101573.25;5084209;28;20027;-72
2022/07/20 08:33:34;;;;;;;18.77;10.88;;;;;;;26.80;47.02;101600.66;5092285;27;20093;-72
2022/07/20 08:35:59;;;;;;;19.50;12.35;;;;;;;26.77;46.63;101601.75;5092680;28;20085;-72
2022/07/20 08:38:24;;;;;;;19.33;11.23;;;;;;;26.84;45.86;101591.41;5103201;28;20027;-72
2022/07/20 08:40:50;;;;;;;16.05;11.88;;;;;;;26.84;44.81;101613.63;5092319;28;20305;-72
2022/07/20 08:43:17;;;;;;;15.52;11.18;;;;;;;26.80;46.44;101622.03;5089779;28;20024;-71
2022/07/20 08:45:43;;;;;;;16.35;11.52;;;;;;;27.00;46.59;101612.41;5094914;28;20024;-72
2022/07/20 08:48:11;;;;;;;21.17;12.10;;;;;;;27.26;45.11;101602.28;5100358;28;20035;-71
2022/07/20 08:50:37;;;;;;;16.15;12.15;;;;;;;27.60;44.63;101603.03;5093449;28;20099;-72
2022/07/20 08:53:03;;;;;;;19.08;11.93;;;;;;;27.57;43.80;101605.97;5084094;28;20116;-71
2022/07/20 08:55:29;;;;;;;13.57;10.85;;;;;;;27.54;44.93;101591.00;5098917;28;20036;-71
2022/07/20 08:57:55;;;;;;;22.23;11.50;;;;;;;27.59;43.85;101585.25;5085488;28;20036;-72
2022/07/20 09:00:21;;;;;;;17.70;11.35;;;;;;;27.50;45.35;101568.16;5092910;28;20501;-71
2022/07/20 09:02:53;;;;;;;20.65;11.90;;;;;;;27.45;44.92;101548.09;5101129;28;20027;-72
2022/07/20 09:05:20;;;;;;;19.23;11.50;;;;;;;27.34;44.97;101557.03;5093072;28;20020;-71
2022/07/20 09:07:55;;;;;;;17.08;11.75;;;;;;;27.22;45.17;101584.78;5101615;28;20455;-71
2022/07/20 09:10:23;;;;;;;13.93;11.02;;;;;;;27.07;45.47;101597.56;5092304;28;20043;-71
2022/07/20 09:12:54;;;;;;;21.85;11.98;;;;;;;27.13;45.39;101607.81;5083659;28;20023;-72
2022/07/20 09:15:29;;;;;;;16.30;11.38;;;;;;;27.27;45.04;101614.69;5088791;28;20065;-71
2022/07/20 09:18:05;;;;;;;18.73;12.77;;;;;;;27.24;44.62;101664.00;5094439;28;20444;-71
2022/07/20 09:20:32;;;;;;;13.95;12.07;;;;;;;27.41;44.80;101680.53;5089472;28;20073;-71
2022/07/20 09:23:13;;;;;;;27.10;13.20;;;;;;;27.54;44.42;101694.59;5096707;28;20027;-71
2022/07/20 09:25:49;;;;;;;16.02;11.25;;;;;;;27.51;44.92;101686.81;5086227;28;20111;-71
2022/07/20 09:28:15;;;;;;;15.15;11.23;;;;;;;27.61;45.22;101694.94;5097249;28;20027;-71
2022/07/20 09:30:48;;;;;;;17.58;12.55;;;;;;;27.77;44.33;101687.38;5098798;28;20352;-71
2022/07/20 09:33:15;;;;;;;20.08;12.52;;;;;;;27.98;44.25;101682.03;5096427;28;20463;-74
2022/07/20 09:35:47;;;;;;;19.73;12.07;;;;;;;28.38;44.74;101658.03;5104246;28;20039;-71
2022/07/20 09:38:12;;;;;;;18.27;11.17;;;;;;;28.74;44.27;101665.75;5094663;28;20031;-71
2022/07/20 09:40:43;;;;;;;20.67;13.03;;;;;;;28.87;43.22;101666.38;5107144;28;20294;-72
2022/07/20 09:43:28;;;;;;;18.05;12.32;;;;;;;29.02;42.78;101664.22;5094596;28;20871;-71
2022/07/20 09:45:54;;;;;;;19.80;12.10;;;;;;;28.94;42.09;101664.88;5093707;28;20115;-71
2022/07/20 09:48:23;;;;;;;16.55;12.35;;;;;;;28.88;41.38;101662.72;5095350;28;20035;-71
2022/07/20 09:50:49;;;;;;;15.48;10.93;;;;;;;29.14;42.75;101665.81;5095321;28;20081;-71
2022/07/20 09:53:15;;;;;;;22.35;11.50;;;;;;;29.39;40.38;101645.63;5101406;28;20032;-72
2022/07/20 09:55:41;;;;;;;14.55;11.23;;;;;;;29.78;39.33;101633.09;5097296;28;20036;-72
2022/07/20 09:58:08;;;;;;;15.85;11.25;;;;;;;29.94;40.39;101645.97;5098576;28;20360;-72
2022/07/20 10:00:34;;;;;;;13.27;10.55;;;;;;;30.15;39.33;101639.56;5095112;28;20037;-71
2022/07/20 10:03:01;;;;;;;19.83;11.88;;;;;;;29.91;38.53;101648.09;5102570;28;20036;-71
2022/07/20 10:05:32;;;;;;;18.25;11.32;;;;;;;29.52;39.42;101651.56;5087073;28;20458;-71
2022/07/20 10:08:01;;;;;;;18.75;11.45;;;;;;;29.29;39.43;101671.63;5090494;28;20036;-71
2022/07/20 10:10:27;;;;;;;16.13;10.70;;;;;;;29.26;40.05;101677.25;5092053;28;20027;-72
2022/07/20 10:12:54;;;;;;;13.65;10.82;;;;;;;29.31;40.41;101675.03;5096009;28;20035;-72
2022/07/20 10:15:29;;;;;;;17.60;10.68;;;;;;;29.59;41.54;101678.72;5092072;28;20028;-71
2022/07/20 10:17:55;;;;;;;14.80;10.85;;;;;;;29.61;40.71;101660.69;5092744;28;20028;-71
2022/07/20 10:20:37;;;;;;;15.40;11.02;;;;;;;29.54;41.14;101657.69;5098788;28;20032;-72
2022/07/20 10:23:14;;;;;;;19.50;10.43;;;;;;;29.45;41.54;101658.50;5079779;28;20231;-71
2022/07/20 10:25:40;;;;;;;15.40;10.98;;;;;;;28.99;41.07;101654.56;5096031;28;20091;-72
2022/07/20 10:28:34;;;;;;;17.38;10.55;;;;;;;28.69;41.68;101658.13;5104418;28;20028;-72
2022/07/20 10:31:06;;;;;;;16.50;10.32;;;;;;;28.76;41.46;101656.59;5100734;28;20028;-72
2022/07/20 10:33:34;;;;;;;14.70;10.18;;;;;;;28.92;41.37;101643.50;5111878;28;20015;-71
2022/07/20 10:36:43;;;;;;;14.68;10.32;;;;;;;29.12;41.16;101654.34;5110679;28;20355;-72
2022/07/20 10:39:45;;;;;;;11.30;9.65;;;;;;;29.16;42.24;101645.03;5082393;28;20040;-72
2022/07/20 10:42:23;;;;;;;14.10;8.95;;;;;;;29.30;40.25;101650.03;5086896;28;20110;-72
2022/07/20 10:44:52;;;;;;;15.32;8.82;;;;;;;29.61;40.38;101650.78;5078218;28;20034;-71
2022/07/20 10:47:43;;;;;;;15.15;10.20;;;;;;;29.95;38.68;101649.50;5100298;28;20042;-71
2022/07/20 10:50:10;;;;;;;13.10;9.45;;;;;;;30.00;40.08;101648.06;5097864;28;20313;-72
2022/07/20 10:52:36;;;;;;;14.70;9.32;;;;;;;30.19;38.05;101644.56;5111457;28;20080;-72
2022/07/20 10:55:04;;;;;;;14.05;8.68;;;;;;;30.31;39.47;101642.53;5102483;28;20933;-72
2022/07/20 10:57:31;;;;;;;12.85;9.07;;;;;;;30.33;37.90;101652.16;5103882;28;20023;-72
2022/07/20 11:00:15;;;;;;;16.75;9.85;;;;;;;30.36;38.28;101660.94;5101314;28;20036;-72
2022/07/20 11:02:40;;;;;;;12.60;8.70;;;;;;;30.40;39.66;101665.88;5103563;28;20391;-72
2022/07/20 11:05:17;;;;;;;12.23;8.35;;;;;;;30.45;38.67;101666.28;5105751;28;20020;-72
2022/07/20 11:07:42;;;;;;;15.43;9.82;;;;;;;30.47;38.08;101666.97;5097682;28;20032;-72
2022/07/20 11:10:26;;;;;;;14.13;9.00;;;;;;;30.75;37.80;101667.03;5094206;28;20028;-72
2022/07/20 11:12:57;;;;;;;9.80;8.77;;;;;;;30.82;37.53;101656.56;5087187;28;20269;-72